createdAt,value
2019-01-14T00:00:10.826Z,64.05
2019-01-14T00:02:44.323Z,63.15
2019-01-14T00:05:15.784Z,63.63
2019-01-14T00:07:46.916Z,63.68
2019-01-14T00:10:18.074Z,63.71
2019-01-14T00:12:49.283Z,63.97
2019-01-14T00:15:20.431Z,64.21
2019-01-14T00:17:51.597Z,64.46
2019-01-14T00:20:22.891Z,64.50
2019-01-14T00:22:54.030Z,64.39
2019-01-14T00:25:25.271Z,64.62
2019-01-14T00:27:56.365Z,64.65
2019-01-14T00:30:27.518Z,64.51
2019-01-14T00:32:58.674Z,63.83
2019-01-14T00:35:29.797Z,63.79
2019-01-14T00:38:00.990Z,62.75
2019-01-14T00:40:32.119Z,62.55
2019-01-14T00:43:04.045Z,62.54
2019-01-14T00:45:35.239Z,62.39
2019-01-14T00:48:06.423Z,62.56
2019-01-14T00:50:37.591Z,62.25
2019-01-14T00:53:08.819Z,62.03
2019-01-14T00:55:40.302Z,61.38
2019-01-14T00:58:11.485Z,62.38
2019-01-14T01:00:43.770Z,62.81
2019-01-14T01:03:14.968Z,62.16
2019-01-14T01:05:46.284Z,61.72
2019-01-14T01:08:18.119Z,61.47
2019-01-14T01:10:50.606Z,61.63
2019-01-14T01:13:21.905Z,61.84
2019-01-14T01:15:53.179Z,61.57
2019-01-14T01:18:24.314Z,61.34
2019-01-14T01:20:55.506Z,61.26
2019-01-14T01:23:26.656Z,61.31
2019-01-14T01:25:57.880Z,61.63
2019-01-14T01:28:29.112Z,61.44
2019-01-14T01:31:00.250Z,61.53
2019-01-14T01:33:31.492Z,61.25
2019-01-14T01:36:02.592Z,61.34
2019-01-14T01:38:33.775Z,60.86
2019-01-14T01:41:04.962Z,60.51
2019-01-14T01:43:36.197Z,60.65
2019-01-14T01:46:07.361Z,60.55
2019-01-14T01:48:38.581Z,60.67
2019-01-14T01:51:09.744Z,60.73
2019-01-14T01:53:40.942Z,60.84
2019-01-14T01:56:12.111Z,60.91
2019-01-14T01:58:43.319Z,60.46
2019-01-14T02:01:14.501Z,60.78
2019-01-14T02:03:45.688Z,60.78
2019-01-14T02:06:16.855Z,60.54
2019-01-14T02:08:47.995Z,60.65
2019-01-14T02:11:19.229Z,60.35
2019-01-14T02:13:50.882Z,60.01
2019-01-14T02:16:22.046Z,59.63
2019-01-14T02:18:53.208Z,60.09
2019-01-14T02:21:24.431Z,59.02
2019-01-14T02:23:55.589Z,59.45
2019-01-14T02:26:26.748Z,59.27
2019-01-14T02:28:57.931Z,59.65
2019-01-14T02:31:29.095Z,59.38
2019-01-14T02:34:00.276Z,59.53
2019-01-14T02:36:31.437Z,59.52
2019-01-14T02:39:02.910Z,59.86
2019-01-14T02:41:34.072Z,59.79
2019-01-14T02:44:05.368Z,59.93
2019-01-14T02:46:36.527Z,60.03
2019-01-14T02:49:07.761Z,59.51
2019-01-14T02:51:39.030Z,60.50
2019-01-14T02:54:10.169Z,60.40
2019-01-14T02:56:41.377Z,60.40
2019-01-14T02:59:12.509Z,60.35
2019-01-14T03:01:43.692Z,60.15
2019-01-14T03:04:14.840Z,59.61
2019-01-14T03:06:46.080Z,59.77
2019-01-14T03:09:17.320Z,59.87
2019-01-14T03:11:48.471Z,59.95
2019-01-14T03:14:19.739Z,59.72
2019-01-14T03:16:50.869Z,59.48
2019-01-14T03:19:22.046Z,58.10
2019-01-14T03:21:53.215Z,59.52
2019-01-14T03:24:24.443Z,59.61
2019-01-14T03:26:55.638Z,59.52
2019-01-14T03:29:26.811Z,59.52
2019-01-14T03:31:57.999Z,59.68
2019-01-14T03:34:29.101Z,59.70
2019-01-14T03:37:05.462Z,59.63
2019-01-14T03:39:33.285Z,59.51
2019-01-14T03:42:04.762Z,59.47
2019-01-14T03:44:36.012Z,59.52
2019-01-14T03:47:07.319Z,59.65
2019-01-14T03:49:38.531Z,59.48
2019-01-14T03:52:09.687Z,59.43
2019-01-14T03:54:40.868Z,59.36
2019-01-14T03:57:12.103Z,59.71
2019-01-14T03:59:43.354Z,59.29
2019-01-14T04:02:14.508Z,59.16
2019-01-14T04:04:45.763Z,59.04
2019-01-14T04:07:16.943Z,59.42
2019-01-14T04:09:48.104Z,59.43
2019-01-14T04:12:19.297Z,59.23
2019-01-14T04:14:50.439Z,59.62
2019-01-14T04:17:21.681Z,59.48
2019-01-14T04:19:52.803Z,58.99
2019-01-14T04:22:23.970Z,59.29
2019-01-14T04:24:55.239Z,59.87
2019-01-14T04:27:26.445Z,59.52
2019-01-14T04:29:57.595Z,59.48
2019-01-14T04:32:28.759Z,59.93
2019-01-14T04:35:00.699Z,59.51
2019-01-14T04:37:31.904Z,59.71
2019-01-14T04:40:03.082Z,59.75
2019-01-14T04:42:34.267Z,60.04
2019-01-14T04:45:06.342Z,59.89
2019-01-14T04:47:37.539Z,59.94
2019-01-14T04:50:10.954Z,59.91
2019-01-14T04:52:42.158Z,59.98
2019-01-14T04:55:13.275Z,59.86
2019-01-14T04:57:44.448Z,59.87
2019-01-14T05:00:21.013Z,59.94
2019-01-14T05:02:53.336Z,59.88
2019-01-14T05:05:24.675Z,59.51
2019-01-14T05:07:55.896Z,59.87
2019-01-14T05:10:27.112Z,59.56
2019-01-14T05:12:58.252Z,59.82
2019-01-14T05:15:29.450Z,59.79
2019-01-14T05:18:00.632Z,60.26
2019-01-14T05:20:31.831Z,60.27
2019-01-14T05:23:02.989Z,60.20
2019-01-14T05:25:34.183Z,60.30
2019-01-14T05:28:05.352Z,60.22
2019-01-14T05:30:36.620Z,60.32
2019-01-14T05:33:07.813Z,60.42
2019-01-14T05:35:39.091Z,60.51
2019-01-14T05:38:10.230Z,60.58
2019-01-14T05:40:41.440Z,60.59
2019-01-14T05:43:12.714Z,60.51
2019-01-14T05:45:43.888Z,60.58
2019-01-14T05:48:15.027Z,60.65
2019-01-14T05:50:46.280Z,60.70
2019-01-14T05:53:17.733Z,60.59
2019-01-14T05:55:48.971Z,60.53
2019-01-14T05:58:20.222Z,60.58
2019-01-14T06:00:51.469Z,60.97
2019-01-14T06:03:22.753Z,61.11
2019-01-14T06:05:54.128Z,61.19
2019-01-14T06:08:25.322Z,61.29
2019-01-14T06:10:56.507Z,61.23
2019-01-14T06:13:27.784Z,60.92
2019-01-14T06:15:59.037Z,60.60
2019-01-14T06:18:30.257Z,59.99
2019-01-14T06:21:01.560Z,60.51
2019-01-14T06:23:32.808Z,60.54
2019-01-14T06:26:03.947Z,60.65
2019-01-14T06:28:35.197Z,60.86
2019-01-14T06:31:06.507Z,60.73
2019-01-14T06:33:37.855Z,60.96
2019-01-14T06:36:09.138Z,60.74
2019-01-14T06:38:40.335Z,60.71
2019-01-14T06:41:11.582Z,60.74
2019-01-14T06:43:42.814Z,60.75
2019-01-14T06:46:14.112Z,60.63
2019-01-14T06:48:45.267Z,60.63
2019-01-14T06:51:16.474Z,60.84
2019-01-14T06:53:47.750Z,60.76
2019-01-14T06:56:18.995Z,60.70
2019-01-14T06:58:50.262Z,60.88
2019-01-14T07:01:21.399Z,60.81
2019-01-14T07:03:52.701Z,60.83
2019-01-14T07:06:23.901Z,61.08
2019-01-14T07:08:55.081Z,60.92
2019-01-14T07:11:26.363Z,61.07
2019-01-14T07:13:57.573Z,60.75
2019-01-14T07:16:28.995Z,60.84
2019-01-14T07:19:00.297Z,60.80
2019-01-14T07:21:31.628Z,60.52
2019-01-14T07:24:02.907Z,60.34
2019-01-14T07:26:34.122Z,60.27
2019-01-14T07:29:06.492Z,60.22
2019-01-14T07:31:37.691Z,60.31
2019-01-14T07:34:08.898Z,60.26
2019-01-14T07:36:40.242Z,59.93
2019-01-14T07:39:11.410Z,60.16
2019-01-14T07:41:42.590Z,59.95
2019-01-14T07:44:13.837Z,60.02
2019-01-14T07:46:45.015Z,59.90
2019-01-14T07:49:16.277Z,59.90
2019-01-14T07:51:47.407Z,60.21
2019-01-14T07:54:18.913Z,60.29
2019-01-14T07:56:50.288Z,60.45
2019-01-14T07:59:21.506Z,60.60
2019-01-14T08:01:52.749Z,60.58
2019-01-14T08:04:23.888Z,60.61
2019-01-14T08:06:55.096Z,60.54
2019-01-14T08:09:26.359Z,60.69
2019-01-14T08:11:57.533Z,60.63
2019-01-14T08:14:28.734Z,60.39
2019-01-14T08:17:00.375Z,60.59
2019-01-14T08:19:31.622Z,60.58
2019-01-14T08:22:02.949Z,60.43
2019-01-14T08:24:35.312Z,59.91
2019-01-14T08:27:06.730Z,59.91
2019-01-14T08:29:37.920Z,59.92
2019-01-14T08:32:09.103Z,60.12
2019-01-14T08:34:40.319Z,59.49
2019-01-14T08:37:11.605Z,59.87
2019-01-14T08:39:42.795Z,59.83
2019-01-14T08:42:14.826Z,59.92
2019-01-14T08:44:46.219Z,60.12
2019-01-14T08:47:17.488Z,60.05
2019-01-14T08:49:48.800Z,59.90
2019-01-14T08:52:20.085Z,59.76
2019-01-14T08:54:51.328Z,59.75
2019-01-14T08:57:22.551Z,59.92
2019-01-14T08:59:53.744Z,60.15
2019-01-14T09:02:24.908Z,60.06
2019-01-14T09:04:56.093Z,59.83
2019-01-14T09:07:27.371Z,59.87
2019-01-14T09:09:58.542Z,59.88
2019-01-14T09:12:29.750Z,59.88
2019-01-14T09:15:00.969Z,59.50
2019-01-14T09:17:32.185Z,59.50
2019-01-14T09:20:03.514Z,59.61
2019-01-14T09:22:34.680Z,59.32
2019-01-14T09:25:06.304Z,59.66
2019-01-14T09:27:37.501Z,59.57
2019-01-14T09:30:13.155Z,59.28
2019-01-14T09:32:44.333Z,59.02
2019-01-14T09:35:15.555Z,59.01
2019-01-14T09:37:46.844Z,58.62
2019-01-14T09:40:20.712Z,58.46
2019-01-14T09:42:52.130Z,58.13
2019-01-14T09:45:23.337Z,58.38
2019-01-14T09:47:55.653Z,58.31
2019-01-14T09:50:26.900Z,58.57
2019-01-14T09:52:58.354Z,58.57
2019-01-14T09:55:29.660Z,58.06
2019-01-14T09:58:00.843Z,57.43
2019-01-14T10:00:32.054Z,57.32
2019-01-14T10:03:03.203Z,57.55
2019-01-14T10:05:34.396Z,57.47
2019-01-14T10:08:05.546Z,56.96
2019-01-14T10:10:36.795Z,56.58
2019-01-14T10:13:07.997Z,56.83
2019-01-14T10:15:39.160Z,56.84
2019-01-14T10:18:10.488Z,56.52
2019-01-14T10:20:41.663Z,56.76
2019-01-14T10:23:13.031Z,56.81
2019-01-14T10:25:44.702Z,57.00
2019-01-14T10:28:15.999Z,56.48
2019-01-14T10:30:47.319Z,56.55
2019-01-14T10:33:18.592Z,56.24
2019-01-14T10:35:49.715Z,56.25
2019-01-14T10:38:21.007Z,55.92
2019-01-14T10:40:52.391Z,56.28
2019-01-14T10:43:23.551Z,56.35
2019-01-14T10:45:54.803Z,55.77
2019-01-14T10:48:26.011Z,56.04
2019-01-14T10:50:57.161Z,55.25
2019-01-14T10:53:30.406Z,53.99
2019-01-14T10:56:01.564Z,55.23
2019-01-14T10:58:32.798Z,55.29
2019-01-14T11:01:04.037Z,55.55
2019-01-14T11:03:35.392Z,55.76
2019-01-14T11:06:06.615Z,55.71
2019-01-14T11:08:37.843Z,55.89
2019-01-14T11:11:09.109Z,55.30
2019-01-14T11:13:40.354Z,55.99
2019-01-14T11:16:11.594Z,56.16
2019-01-14T11:18:50.739Z,56.66
2019-01-14T11:21:21.990Z,56.88
2019-01-14T11:23:53.159Z,57.33
2019-01-14T11:26:24.287Z,57.60
2019-01-14T11:28:55.527Z,57.47
2019-01-14T11:31:26.705Z,57.73
2019-01-14T11:33:57.984Z,57.64
2019-01-14T11:36:29.128Z,57.55
2019-01-14T11:39:04.966Z,57.56
2019-01-14T11:41:34.467Z,56.86
2019-01-14T11:44:05.733Z,56.38
2019-01-14T11:46:37.044Z,56.24
2019-01-14T11:49:08.292Z,54.63
2019-01-14T11:51:39.537Z,54.99
2019-01-14T11:54:10.784Z,55.58
2019-01-14T11:56:42.261Z,55.34
2019-01-14T11:59:13.395Z,55.54
2019-01-14T12:01:44.666Z,55.55
2019-01-14T12:04:15.782Z,55.53
2019-01-14T12:06:46.975Z,56.64
2019-01-14T12:09:18.194Z,57.27
2019-01-14T12:11:49.316Z,57.93
2019-01-14T12:14:20.505Z,58.46
2019-01-14T12:16:52.736Z,58.88
2019-01-14T12:19:23.938Z,59.25
2019-01-14T12:21:55.171Z,59.64
2019-01-14T12:24:26.349Z,59.92
2019-01-14T12:26:57.512Z,60.15
2019-01-14T12:29:28.646Z,60.34
2019-01-14T12:31:59.874Z,60.37
2019-01-14T12:34:31.146Z,60.37
2019-01-14T12:37:02.387Z,60.07
2019-01-14T12:39:33.587Z,59.88
2019-01-14T12:42:05.091Z,59.65
2019-01-14T12:44:36.302Z,59.41
2019-01-14T12:47:07.528Z,59.05
2019-01-14T12:49:38.747Z,58.98
2019-01-14T12:52:09.953Z,58.78
2019-01-14T12:54:41.150Z,57.93
2019-01-14T12:57:12.386Z,58.06
2019-01-14T12:59:43.740Z,58.58
2019-01-14T13:02:14.950Z,58.58
2019-01-14T13:04:46.243Z,59.44
2019-01-14T13:07:17.525Z,59.95
2019-01-14T13:09:48.746Z,60.22
2019-01-14T13:12:20.002Z,60.45
2019-01-14T13:14:51.167Z,60.87
2019-01-14T13:17:22.387Z,61.14
2019-01-14T13:19:53.583Z,61.26
2019-01-14T13:22:24.849Z,61.20
2019-01-14T13:24:56.047Z,61.20
2019-01-14T13:27:27.278Z,61.41
2019-01-14T13:29:58.529Z,61.34
2019-01-14T13:32:29.816Z,61.39
2019-01-14T13:35:01.150Z,61.23
2019-01-14T13:37:32.374Z,61.00
2019-01-14T13:40:03.900Z,60.98
2019-01-14T13:42:35.243Z,60.85
2019-01-14T13:45:07.572Z,60.80
2019-01-14T13:47:39.722Z,60.57
2019-01-14T13:50:12.398Z,60.69
2019-01-14T13:52:44.907Z,60.56
2019-01-14T13:55:16.331Z,60.33
2019-01-14T13:57:47.978Z,60.38
2019-01-14T14:00:21.410Z,60.16
2019-01-14T14:02:52.804Z,60.39
2019-01-14T14:05:24.513Z,60.35
2019-01-14T14:07:55.971Z,60.30
2019-01-14T14:10:31.826Z,60.56
2019-01-14T14:13:03.014Z,60.56
2019-01-14T14:15:34.572Z,59.85
2019-01-14T14:18:06.249Z,60.09
2019-01-14T14:20:37.981Z,59.93
2019-01-14T14:23:09.630Z,59.68
2019-01-14T14:25:41.097Z,59.74
2019-01-14T14:28:12.299Z,59.84
2019-01-14T14:30:43.649Z,59.26
2019-01-14T14:33:14.843Z,59.27
2019-01-14T14:35:46.073Z,59.18
2019-01-14T14:38:17.435Z,59.15
2019-01-14T14:40:48.653Z,59.12
2019-01-14T14:43:19.925Z,59.11
2019-01-14T14:45:51.203Z,59.21
2019-01-14T14:48:22.419Z,59.09
2019-01-14T14:50:53.799Z,59.07
2019-01-14T14:53:25.028Z,59.21
2019-01-14T14:55:56.242Z,58.98
2019-01-14T14:58:27.625Z,58.71
2019-01-14T15:00:58.847Z,58.71
2019-01-14T15:03:31.210Z,58.82
2019-01-14T15:06:02.419Z,58.86
2019-01-14T15:08:33.632Z,58.67
2019-01-14T15:11:04.967Z,58.77
2019-01-14T15:13:36.620Z,58.74
2019-01-14T15:16:07.790Z,58.94
2019-01-14T15:18:38.931Z,59.00
2019-01-14T15:21:11.206Z,58.65
2019-01-14T15:23:42.405Z,58.61
2019-01-14T15:26:13.718Z,58.70
2019-01-14T15:28:44.952Z,58.40
2019-01-14T15:31:16.106Z,58.59
2019-01-14T15:33:47.331Z,58.76
2019-01-14T15:36:18.604Z,58.94
2019-01-14T15:38:50.010Z,58.87
2019-01-14T15:41:21.279Z,59.04
2019-01-14T15:43:52.725Z,59.04
2019-01-14T15:46:23.960Z,59.06
2019-01-14T15:48:55.152Z,59.00
2019-01-14T15:51:26.469Z,59.00
2019-01-14T15:53:57.618Z,59.04
2019-01-14T15:56:28.967Z,59.21
2019-01-14T15:59:00.175Z,59.21
2019-01-14T16:01:31.405Z,59.15
2019-01-14T16:04:02.635Z,59.40
2019-01-14T16:06:34.047Z,59.40
2019-01-14T16:09:08.272Z,59.25
2019-01-14T16:11:39.461Z,59.29
2019-01-14T16:14:11.719Z,59.41
2019-01-14T16:16:42.917Z,59.21
2019-01-14T16:19:14.266Z,59.21
2019-01-14T16:21:45.645Z,59.27
2019-01-14T16:24:16.838Z,59.34
2019-01-14T16:26:48.208Z,59.35
2019-01-14T16:29:19.449Z,59.41
2019-01-14T16:31:50.753Z,59.40
2019-01-14T16:34:22.023Z,59.48
2019-01-14T16:36:53.314Z,59.30
2019-01-14T16:39:24.720Z,59.21
2019-01-14T16:41:55.897Z,59.28
2019-01-14T16:44:27.148Z,59.37
2019-01-14T16:46:58.369Z,59.37
2019-01-14T16:49:29.682Z,59.37
2019-01-14T16:52:00.922Z,59.36
2019-01-14T16:54:32.264Z,59.36
2019-01-14T16:57:03.455Z,59.61
2019-01-14T16:59:35.870Z,59.74
2019-01-14T17:02:07.400Z,59.64
2019-01-14T17:04:38.843Z,59.53
2019-01-14T17:07:11.239Z,59.53
2019-01-14T17:09:42.560Z,59.54
2019-01-14T17:12:13.752Z,59.54
2019-01-14T17:14:45.128Z,59.43
2019-01-14T17:17:16.737Z,59.11
2019-01-14T17:19:48.280Z,59.11
2019-01-14T17:22:19.564Z,59.43
2019-01-14T17:24:50.900Z,59.18
2019-01-14T17:27:22.159Z,59.31
2019-01-14T17:29:53.376Z,59.29
2019-01-14T17:32:24.639Z,59.31
2019-01-14T17:34:55.939Z,59.33
2019-01-14T17:37:27.214Z,59.26
2019-01-14T17:39:59.699Z,59.26
2019-01-14T17:42:31.033Z,59.35
2019-01-14T17:45:02.666Z,59.59
2019-01-14T17:47:37.158Z,59.59
2019-01-14T17:50:11.487Z,59.51
2019-01-14T17:52:42.752Z,59.81
2019-01-14T17:55:14.171Z,59.81
2019-01-14T17:57:45.488Z,59.72
2019-01-14T18:00:19.275Z,59.81
2019-01-14T18:02:50.729Z,59.96
2019-01-14T18:05:21.951Z,59.95
2019-01-14T18:07:53.176Z,60.30
2019-01-14T18:10:24.411Z,60.30
2019-01-14T18:12:55.591Z,60.29
2019-01-14T18:15:26.831Z,60.46
2019-01-14T18:17:58.068Z,60.65
2019-01-14T18:20:29.546Z,60.93
2019-01-14T18:23:00.860Z,60.99
2019-01-14T18:25:32.152Z,61.06
2019-01-14T18:28:03.678Z,61.18
2019-01-14T18:30:35.074Z,61.54
2019-01-14T18:33:06.617Z,61.54
2019-01-14T18:35:37.968Z,61.46
2019-01-14T18:38:09.621Z,61.52
2019-01-14T18:40:47.067Z,61.53
2019-01-14T18:43:14.008Z,61.54
2019-01-14T18:45:46.281Z,61.51
2019-01-14T18:48:17.483Z,61.56
2019-01-14T18:50:50.135Z,61.61
2019-01-14T18:53:22.829Z,61.60
2019-01-14T18:55:54.127Z,61.65
2019-01-14T18:58:25.401Z,61.63
2019-01-14T19:00:56.611Z,61.64
2019-01-14T19:03:27.799Z,61.70
2019-01-14T19:05:59.079Z,61.78
2019-01-14T19:08:30.271Z,61.77
2019-01-14T19:11:01.518Z,61.81
2019-01-14T19:13:32.799Z,61.84
2019-01-14T19:16:06.194Z,61.79
2019-01-14T19:18:37.367Z,61.72
2019-01-14T19:21:08.612Z,61.70
2019-01-14T19:23:39.868Z,61.73
2019-01-14T19:26:11.146Z,61.79
2019-01-14T19:28:42.369Z,61.83
2019-01-14T19:31:13.565Z,61.83
2019-01-14T19:33:44.857Z,61.66
2019-01-14T19:36:16.232Z,61.66
2019-01-14T19:38:47.499Z,61.99
2019-01-14T19:41:18.899Z,61.99
2019-01-14T19:43:50.124Z,62.01
2019-01-14T19:46:21.413Z,62.07
2019-01-14T19:48:52.588Z,62.08
2019-01-14T19:51:23.857Z,62.22
2019-01-14T19:53:55.144Z,62.32
2019-01-14T19:56:26.406Z,62.31
2019-01-14T19:58:57.634Z,62.38
2019-01-14T20:01:28.968Z,62.44
2019-01-14T20:04:00.225Z,62.37
2019-01-14T20:06:32.921Z,62.40
2019-01-14T20:09:04.937Z,62.49
2019-01-14T20:11:36.309Z,62.49
2019-01-14T20:14:07.618Z,62.59
2019-01-14T20:16:39.043Z,62.55
2019-01-14T20:19:10.306Z,62.56
2019-01-14T20:21:41.490Z,62.66
2019-01-14T20:24:12.719Z,62.68
2019-01-14T20:26:43.900Z,62.72
2019-01-14T20:29:15.096Z,62.74
2019-01-14T20:31:46.272Z,62.72
2019-01-14T20:34:18.653Z,62.63
2019-01-14T20:36:49.924Z,62.59
2019-01-14T20:39:21.173Z,62.58
2019-01-14T20:41:53.422Z,62.55
2019-01-14T20:44:24.612Z,62.52
2019-01-14T20:46:55.904Z,62.55
2019-01-14T20:49:27.172Z,62.51
2019-01-14T20:51:58.446Z,62.52
2019-01-14T20:54:29.686Z,62.56
2019-01-14T20:57:01.015Z,62.55
2019-01-14T20:59:34.572Z,62.63
2019-01-14T21:02:05.389Z,62.56
2019-01-14T21:04:36.966Z,62.62
2019-01-14T21:07:08.285Z,62.73
2019-01-14T21:09:39.638Z,62.85
2019-01-14T21:12:11.037Z,62.95
2019-01-14T21:14:42.304Z,62.91
2019-01-14T21:17:13.646Z,62.98
2019-01-14T21:19:45.160Z,63.38
2019-01-14T21:22:16.478Z,63.31
2019-01-14T21:24:47.679Z,63.20
2019-01-14T21:27:18.999Z,63.32
2019-01-14T21:29:50.280Z,63.37
2019-01-14T21:32:21.679Z,63.32
2019-01-14T21:34:53.167Z,63.40
2019-01-14T21:37:24.488Z,63.58
2019-01-14T21:39:55.855Z,63.78
2019-01-14T21:42:27.139Z,63.63
2019-01-14T21:44:58.486Z,63.55
2019-01-14T21:47:32.686Z,63.60
2019-01-14T21:50:02.998Z,63.64
2019-01-14T21:52:34.269Z,63.58
2019-01-14T21:55:06.470Z,63.55
2019-01-14T21:57:38.768Z,63.57
2019-01-14T22:00:13.769Z,63.44
2019-01-14T22:02:45.249Z,63.41
2019-01-14T22:05:16.486Z,63.40
2019-01-14T22:07:47.930Z,63.55
2019-01-14T22:10:22.631Z,63.55
2019-01-14T22:12:55.935Z,63.51
2019-01-14T22:15:27.845Z,63.49
2019-01-14T22:17:59.129Z,63.55
2019-01-14T22:20:30.755Z,63.35
2019-01-14T22:23:02.169Z,63.37
2019-01-14T22:25:33.573Z,63.29
2019-01-14T22:28:04.872Z,63.40
2019-01-14T22:30:36.485Z,63.34
2019-01-14T22:33:07.930Z,63.32
2019-01-14T22:35:39.241Z,63.43
2019-01-14T22:38:10.628Z,63.82
2019-01-14T22:40:41.897Z,63.82
2019-01-14T22:43:13.161Z,63.58
2019-01-14T22:45:44.428Z,63.49
2019-01-14T22:48:16.116Z,63.53
2019-01-14T22:50:48.208Z,63.40
2019-01-14T22:53:19.420Z,63.32
2019-01-14T22:55:50.769Z,63.26
2019-01-14T22:58:21.913Z,63.18
2019-01-14T23:01:12.283Z,63.05
2019-01-14T23:03:48.961Z,63.03
2019-01-14T23:06:20.257Z,62.87
2019-01-14T23:08:51.425Z,62.76
2019-01-14T23:11:22.675Z,62.72
2019-01-14T23:13:55.926Z,62.73
2019-01-14T23:16:27.198Z,62.74
2019-01-14T23:18:58.490Z,62.67
2019-01-14T23:21:29.901Z,62.68
2019-01-14T23:24:02.030Z,62.58
2019-01-14T23:26:33.190Z,62.65
2019-01-14T23:29:04.441Z,62.63
2019-01-14T23:31:35.619Z,62.62
2019-01-14T23:34:06.785Z,62.45
2019-01-14T23:36:38.045Z,62.45
2019-01-14T23:39:10.156Z,62.35
2019-01-14T23:41:41.462Z,62.33
2019-01-14T23:44:12.688Z,62.17
2019-01-14T23:46:43.914Z,62.20
2019-01-14T23:49:15.120Z,62.15
2019-01-14T23:51:54.880Z,61.98
2019-01-14T23:54:26.088Z,61.98
2019-01-14T23:56:57.272Z,62.14
2019-01-14T23:59:28.476Z,62.19
